MSC Kia Ora — A8JG6 — position and weather

sailwx.info

Track history (hours):
 
Tides and Currents Weather Stations Pressure Air Temp Water Temp Dewpoint Dewpoint Depression Visibility Wind Speed Wind Dir Waves Ship Positions

MSC Kia Ora

Last reported at 2017-Dec-08 08:24 UTC. Time now 2017-Dec-14 15:22 UTC.
Position S 35°50' E 175°26'.

Length 148 m; draft 7.4 m.

Type: Ship (hazmat cat D). MMSI: 636017700.

Date/timePositionNaut miles runAvg speedWind from/ knotsBaromVisibWave heightAir tempDewpointWater temp
2017-Dec-08 08:24S 35°50' E 175°26'10113.5
2017-Dec-08 00:53S 37°24' E 176°11'614.0
2017-Dec-08 00:30S 37°30' E 176°12'612.7
2017-Dec-08 00:00S 37°36' E 176°11'4 5.1
2017-Dec-07 23:15S 37°40' E 176°11'0 0.0
2017-Dec-07 22:57S 37°40' E 176°11'0 0.0
2017-Dec-07 22:27S 37°40' E 176°11'86 5.5
2017-Dec-07 06:51S 36°31' E 175°06'4 9.9
2017-Dec-07 06:24S 36°34' E 175°01'410.0
2017-Dec-07 06:00S 36°37' E 174°58'610.0
2017-Dec-07 05:27S 36°41' E 174°54'4 9.9
2017-Dec-07 05:00S 36°45' E 174°50'4 7.1
2017-Dec-07 04:30S 36°48' E 174°49'3 6.3
2017-Dec-07 04:00S 36°51' E 174°47'0 0.0
2017-Dec-07 03:11S 36°51' E 174°47'0 0.0
2017-Dec-07 02:59S 36°51' E 174°47'0 0.0
2017-Dec-07 02:20S 36°51' E 174°47'0 0.0
2017-Dec-07 01:56S 36°51' E 174°47'0 0.0
2017-Dec-07 00:14S 36°51' E 174°47'0 0.0
2017-Dec-06 21:14S 36°51' E 174°47'0 0.0
2017-Dec-06 20:50S 36°51' E 174°47'  
2017-Dec-03 06:51S 22°36' E 166°22'513.7
2017-Dec-03 06:30S 22°31' E 166°19'613.1
2017-Dec-03 06:00S 22°26' E 166°16'510.9
2017-Dec-03 05:31S 22°20' E 166°16'713.0
2017-Dec-03 05:00S 22°16' E 166°21'4 8.6
2017-Dec-03 04:30S 22°16' E 166°26'0 0.3
2017-Dec-03 03:58S 22°16' E 166°26'0 0.0
2017-Dec-03 03:28S 22°16' E 166°26'0 0.0
2017-Dec-03 02:58S 22°16' E 166°26'0 0.0
2017-Dec-03 02:28S 22°16' E 166°26'0 0.0
2017-Dec-03 01:55S 22°16' E 166°26'0 0.0
2017-Dec-03 01:28S 22°16' E 166°26'0 0.0
2017-Dec-03 00:58S 22°16' E 166°26'0 0.0
2017-Dec-03 00:28S 22°16' E 166°26'0 0.0
2017-Dec-02 23:58S 22°16' E 166°26'0 0.0
2017-Dec-02 23:28S 22°16' E 166°26'0 0.0
2017-Dec-02 22:58S 22°16' E 166°26'0 0.0
2017-Dec-02 22:30S 22°16' E 166°26'1 1.2
2017-Dec-02 22:00S 22°16' E 166°26'4 8.0
2017-Dec-02 21:30S 22°16' E 166°21'713.5
2017-Dec-02 21:00S 22°21' E 166°16'4 8.6
2017-Dec-02 20:30S 22°23' E 166°13'510.2
2017-Dec-02 19:59S 22°25' E 166°07'  
2017-Nov-30 08:35S 26°40' E 153°18'12 9.4
2017-Nov-30 07:16S 26°49' E 153°09'612.3
2017-Nov-30 06:46S 26°55' E 153°12'312.8
2017-Nov-30 06:30S 26°58' E 153°14'612.1
2017-Nov-30 06:00S 27°03' E 153°17'612.0
2017-Nov-30 05:30S 27°08' E 153°21'612.0
2017-Nov-30 05:01S 27°14' E 153°20'612.8
2017-Nov-30 04:30S 27°17' E 153°14'510.7
2017-Nov-30 04:00S 27°22' E 153°11'0 0.0
2017-Nov-30 03:28S 27°22' E 153°11'0 0.0
2017-Nov-30 03:00S 27°22' E 153°11'0 0.0
2017-Nov-30 02:30S 27°22' E 153°11'0 0.0
2017-Nov-30 02:00S 27°22' E 153°11'0 0.0
2017-Nov-30 01:30S 27°22' E 153°11'0 0.0
2017-Nov-30 01:00S 27°22' E 153°11'0 0.0
2017-Nov-30 00:30S 27°22' E 153°11'0 0.0
2017-Nov-30 00:00S 27°22' E 153°11'0 0.0
2017-Nov-29 23:30S 27°22' E 153°11'0 0.0
2017-Nov-29 23:00S 27°22' E 153°11'0 0.0
2017-Nov-29 22:30S 27°22' E 153°11'0 0.0
2017-Nov-29 22:00S 27°22' E 153°11'0 0.0
2017-Nov-29 21:30S 27°22' E 153°11'0 0.0
2017-Nov-29 21:00S 27°22' E 153°11'0 0.0
2017-Nov-29 20:30S 27°22' E 153°11'0 0.0
2017-Nov-29 20:00S 27°22' E 153°11'0 0.0
2017-Nov-29 19:30S 27°22' E 153°11'0 0.0
2017-Nov-29 19:00S 27°22' E 153°11'0 0.0
2017-Nov-29 18:30S 27°22' E 153°11'0 0.0
2017-Nov-29 18:00S 27°22' E 153°11'0 0.0
2017-Nov-29 17:30S 27°22' E 153°11'0 0.0
2017-Nov-29 17:00S 27°22' E 153°11'0 0.0
2017-Nov-29 16:30S 27°22' E 153°11'0 0.0
2017-Nov-29 15:59S 27°22' E 153°11'0 0.0
2017-Nov-29 15:29S 27°22' E 153°11'0 0.0
2017-Nov-29 14:56S 27°22' E 153°11'0 0.0
2017-Nov-29 14:29S 27°22' E 153°11'0 0.5
2017-Nov-29 14:00S 27°22' E 153°11'4 7.5
2017-Nov-29 13:30S 27°18' E 153°13'713.6
2017-Nov-29 13:00S 27°15' E 153°19'612.2
2017-Nov-29 12:30S 27°09' E 153°21'612.4
2017-Nov-29 12:00S 27°03' E 153°18'611.9
2017-Nov-29 11:30S 26°58' E 153°14'612.9
2017-Nov-29 11:00S 26°53' E 153°10'611.1
2017-Nov-29 10:30S 26°47' E 153°11'4 4.5
2017-Nov-29 09:42S 26°45' E 153°13'310.8
2017-Nov-29 09:27S 26°46' E 153°16'510.8
2017-Nov-29 08:58S 26°48' E 153°21'510.7
2017-Nov-29 08:29S 26°51' E 153°26'1110.1
2017-Nov-29 07:22S 26°60' E 153°34'510.9
2017-Nov-29 06:56S 27°04' E 153°36'3012.4
2017-Nov-29 04:32S 27°34' E 153°40'013.0
2017-Nov-29 04:30S 27°34' E 153°40'612.5
2017-Nov-29 04:00S 27°40' E 153°41'612.9
2017-Nov-29 03:30S 27°47' E 153°41'613.0
2017-Nov-29 03:00S 27°53' E 153°42'612.8
2017-Nov-29 02:30S 27°59' E 153°42'612.9
2017-Nov-29 02:00S 28°06' E 153°42'713.0
2017-Nov-29 01:30S 28°12' E 153°42'713.1
2017-Nov-29 01:00S 28°19' E 153°43'713.1
2017-Nov-29 00:29S 28°26' E 153°43'  
Track history (hours):
 
Tides and Currents Weather Stations Pressure Air Temp Water Temp Dewpoint Dewpoint Depression Visibility Wind Speed Wind Dir Waves Ship Positions

MSC Kia Ora

Last reported at 2017-Dec-08 08:24 UTC. Time now 2017-Dec-14 15:22 UTC.
Position S 35°50' E 175°26'.

Length 148 m; draft 7.4 m.

Type: Ship (hazmat cat D). MMSI: 636017700.

Date/timePositionNaut miles runAvg speedWind from/ knotsBaromVisibWave heightAir tempDewpointWater temp
2017-Dec-08 08:24S 35°50' E 175°26'10113.5
2017-Dec-08 00:53S 37°24' E 176°11'614.0
2017-Dec-08 00:30S 37°30' E 176°12'612.7
2017-Dec-08 00:00S 37°36' E 176°11'4 5.1
2017-Dec-07 23:15S 37°40' E 176°11'0 0.0
2017-Dec-07 22:57S 37°40' E 176°11'0 0.0
2017-Dec-07 22:27S 37°40' E 176°11'86 5.5
2017-Dec-07 06:51S 36°31' E 175°06'4 9.9
2017-Dec-07 06:24S 36°34' E 175°01'410.0
2017-Dec-07 06:00S 36°37' E 174°58'610.0
2017-Dec-07 05:27S 36°41' E 174°54'4 9.9
2017-Dec-07 05:00S 36°45' E 174°50'4 7.1
2017-Dec-07 04:30S 36°48' E 174°49'3 6.3
2017-Dec-07 04:00S 36°51' E 174°47'0 0.0
2017-Dec-07 03:11S 36°51' E 174°47'0 0.0
2017-Dec-07 02:59S 36°51' E 174°47'0 0.0
2017-Dec-07 02:20S 36°51' E 174°47'0 0.0
2017-Dec-07 01:56S 36°51' E 174°47'0 0.0
2017-Dec-07 00:14S 36°51' E 174°47'0 0.0
2017-Dec-06 21:14S 36°51' E 174°47'0 0.0
2017-Dec-06 20:50S 36°51' E 174°47'  
2017-Dec-03 06:51S 22°36' E 166°22'513.7
2017-Dec-03 06:30S 22°31' E 166°19'613.1
2017-Dec-03 06:00S 22°26' E 166°16'510.9
2017-Dec-03 05:31S 22°20' E 166°16'713.0
2017-Dec-03 05:00S 22°16' E 166°21'4 8.6
2017-Dec-03 04:30S 22°16' E 166°26'0 0.3
2017-Dec-03 03:58S 22°16' E 166°26'0 0.0
2017-Dec-03 03:28S 22°16' E 166°26'0 0.0
2017-Dec-03 02:58S 22°16' E 166°26'0 0.0
2017-Dec-03 02:28S 22°16' E 166°26'0 0.0
2017-Dec-03 01:55S 22°16' E 166°26'0 0.0
2017-Dec-03 01:28S 22°16' E 166°26'0 0.0
2017-Dec-03 00:58S 22°16' E 166°26'0 0.0
2017-Dec-03 00:28S 22°16' E 166°26'0 0.0
2017-Dec-02 23:58S 22°16' E 166°26'0 0.0
2017-Dec-02 23:28S 22°16' E 166°26'0 0.0
2017-Dec-02 22:58S 22°16' E 166°26'0 0.0
2017-Dec-02 22:30S 22°16' E 166°26'1 1.2
2017-Dec-02 22:00S 22°16' E 166°26'4 8.0
2017-Dec-02 21:30S 22°16' E 166°21'713.5
2017-Dec-02 21:00S 22°21' E 166°16'4 8.6
2017-Dec-02 20:30S 22°23' E 166°13'510.2
2017-Dec-02 19:59S 22°25' E 166°07'  
2017-Nov-30 08:35S 26°40' E 153°18'12 9.4
2017-Nov-30 07:16S 26°49' E 153°09'612.3
2017-Nov-30 06:46S 26°55' E 153°12'312.8
2017-Nov-30 06:30S 26°58' E 153°14'612.1
2017-Nov-30 06:00S 27°03' E 153°17'612.0
2017-Nov-30 05:30S 27°08' E 153°21'612.0
2017-Nov-30 05:01S 27°14' E 153°20'612.8
2017-Nov-30 04:30S 27°17' E 153°14'510.7
2017-Nov-30 04:00S 27°22' E 153°11'0 0.0
2017-Nov-30 03:28S 27°22' E 153°11'0 0.0
2017-Nov-30 03:00S 27°22' E 153°11'0 0.0
2017-Nov-30 02:30S 27°22' E 153°11'0 0.0
2017-Nov-30 02:00S 27°22' E 153°11'0 0.0
2017-Nov-30 01:30S 27°22' E 153°11'0 0.0
2017-Nov-30 01:00S 27°22' E 153°11'0 0.0
2017-Nov-30 00:30S 27°22' E 153°11'0 0.0
2017-Nov-30 00:00S 27°22' E 153°11'0 0.0
2017-Nov-29 23:30S 27°22' E 153°11'0 0.0
2017-Nov-29 23:00S 27°22' E 153°11'0 0.0
2017-Nov-29 22:30S 27°22' E 153°11'0 0.0
2017-Nov-29 22:00S 27°22' E 153°11'0 0.0
2017-Nov-29 21:30S 27°22' E 153°11'0 0.0
2017-Nov-29 21:00S 27°22' E 153°11'0 0.0
2017-Nov-29 20:30S 27°22' E 153°11'0 0.0
2017-Nov-29 20:00S 27°22' E 153°11'0 0.0
2017-Nov-29 19:30S 27°22' E 153°11'0 0.0
2017-Nov-29 19:00S 27°22' E 153°11'0 0.0
2017-Nov-29 18:30S 27°22' E 153°11'0 0.0
2017-Nov-29 18:00S 27°22' E 153°11'0 0.0
2017-Nov-29 17:30S 27°22' E 153°11'0 0.0
2017-Nov-29 17:00S 27°22' E 153°11'0 0.0
2017-Nov-29 16:30S 27°22' E 153°11'0 0.0
2017-Nov-29 15:59S 27°22' E 153°11'0 0.0
2017-Nov-29 15:29S 27°22' E 153°11'0 0.0
2017-Nov-29 14:56S 27°22' E 153°11'0 0.0
2017-Nov-29 14:29S 27°22' E 153°11'0 0.5
2017-Nov-29 14:00S 27°22' E 153°11'4 7.5
2017-Nov-29 13:30S 27°18' E 153°13'713.6
2017-Nov-29 13:00S 27°15' E 153°19'612.2
2017-Nov-29 12:30S 27°09' E 153°21'612.4
2017-Nov-29 12:00S 27°03' E 153°18'611.9
2017-Nov-29 11:30S 26°58' E 153°14'612.9
2017-Nov-29 11:00S 26°53' E 153°10'611.1
2017-Nov-29 10:30S 26°47' E 153°11'4 4.5
2017-Nov-29 09:42S 26°45' E 153°13'310.8
2017-Nov-29 09:27S 26°46' E 153°16'510.8
2017-Nov-29 08:58S 26°48' E 153°21'510.7
2017-Nov-29 08:29S 26°51' E 153°26'1110.1
2017-Nov-29 07:22S 26°60' E 153°34'510.9
2017-Nov-29 06:56S 27°04' E 153°36'3012.4
2017-Nov-29 04:32S 27°34' E 153°40'013.0
2017-Nov-29 04:30S 27°34' E 153°40'612.5
2017-Nov-29 04:00S 27°40' E 153°41'612.9
2017-Nov-29 03:30S 27°47' E 153°41'613.0
2017-Nov-29 03:00S 27°53' E 153°42'612.8
2017-Nov-29 02:30S 27°59' E 153°42'612.9
2017-Nov-29 02:00S 28°06' E 153°42'713.0
2017-Nov-29 01:30S 28°12' E 153°42'713.1
2017-Nov-29 01:00S 28°19' E 153°43'713.1
2017-Nov-29 00:29S 28°26' E 153°43'  

Dump ship's entire track history